Nearby METAR Reports

 

KIAD - Wash Dc/Dulles, Virginia, USA
Distance from station: ESE 7mi, 11km
Updated: Thu, 06-Aug-2020 7:52am EDT
Mostly cloudy
Mostly cloudy
 Wind from NE
Wind: NE 6 mph , 9 km/h
Temperature: 72°F , 22°C
Dew Point: 70°F , 21°C
Humidity: 94%
Barometer: 30.07 inHg , 1018.3 hPa
Clouds: Mostly cloudy
Visibility: 10 miles , 16 km
Cloud details: Mostly cloudy 11000 ft
Mostly cloudy 14000 ft
2020/08/06 11:52 KIAD 061152Z 05005KT 10SM BKN110 BKN140 22/21 A3007 RMK AO2 SLP180 60076 70076 T02220211 10244 20211 53003 $
KJYO - Leesburg/Godfrey, Virginia, USA
Distance from station: N 7mi, 12km
Updated: Thu, 06-Aug-2020 8:35am EDT
Mostly cloudy
Mostly cloudy
 Wind from NE
Wind: NE 5 mph , 7 km/h
Temperature: 64°F , 18°C
Dew Point: 64°F , 18°C
Humidity: 100%
Barometer: 30.11 inHg , 1019.6 hPa
Clouds: Mostly cloudy
Visibility: 10 miles , 16 km
Cloud details: Partly cloudy 1800 ft
Mostly cloudy 11000 ft
2020/08/06 12:35 KJYO 061235Z AUTO 04004KT 10SM SCT018 BKN110 18/18 A3011 RMK AO2
 
KHEF - Manassas Muni, Virginia, USA
Distance from station: S 17mi, 28km
Updated: Thu, 06-Aug-2020 7:56am EDT
Clear
Clear
 Wind from NNE
Wind: NNE 6 mph , 9 km/h
Temperature: 72°F , 22°C
Dew Point: 70°F , 21°C
Humidity: 94%
Barometer: 30.08 inHg , 1018.6 hPa
Clouds: Clear
Visibility: 10 miles , 16 km
2020/08/06 11:56 KHEF 061156Z 03005KT 10SM CLR 22/21 A3008 RMK AO2 SLP189 60000 T02170206 10239 20211 53003
KGAI - Gaithersburg, Maryland, USA
Distance from station: NE 26mi, 41km
Updated: Thu, 06-Aug-2020 7:56am EDT
Few Clouds
Few Clouds
 Wind from calm
Wind: Calm
Temperature: 72°F , 22°C
Dew Point: 70°F , 21°C
Humidity: 94%
Barometer: 30.09 inHg , 1019 hPa
Clouds: Few Clouds
Visibility: 10 miles , 16 km
Cloud details: Few Clouds 12000 ft
2020/08/06 11:56 KGAI 061156Z AUTO 00000KT 10SM FEW120 22/21 A3009 RMK AO2 RAE25 SLP199 P0000 60017 70017 T02170206 10222 20211 53000
 
KDAA - Fort Belvoir/Dav, Virginia, USA
Distance from station: SE 27mi, 44km
Updated: Thu, 06-Aug-2020 7:56am EDT
Partly cloudy
Partly cloudy
 Wind from calm
Wind: Calm
Temperature: 72°F , 22°C
Dew Point: 70°F , 21°C
Humidity: 94%
Barometer: 30.06 inHg , 1017.9 hPa
Clouds: Partly cloudy
Visibility: 10 miles , 16 km
Cloud details: Partly cloudy 12000 ft
2020/08/06 11:56 KDAA 061156Z AUTO 00000KT 10SM SCT120 22/21 A3006 RMK AO2 SLP182 60044 70044 T02220212 10240 20219 52005 $
KHWY - Warrenton, Virginia, USA
Distance from station: SSW 27mi, 44km
Updated: Thu, 06-Aug-2020 8:15am EDT
Clear
Clear
 Wind from calm
Wind: Calm
Temperature: 72°F , 22°C
Dew Point: 70°F , 21°C
Humidity: 94%
Barometer: 30.09 inHg , 1019 hPa
Clouds: Clear
Visibility: 10 miles , 16 km
2020/08/06 12:15 KHWY 061215Z AUTO 00000KT 10SM CLR 22/21 A3009 RMK AO2 T02210205
 
KDCA - Washington/Natl, Washington D.c., USA
Distance from station: ESE 30mi, 48km
Updated: Thu, 06-Aug-2020 7:52am EDT
Overcast
Overcast
 Wind from NNE
Wind: NNE 7 mph , 11 km/h
Temperature: 73°F , 23°C
Dew Point: 70°F , 21°C
Humidity: 89%
Barometer: 30.07 inHg , 1018.3 hPa
Clouds: Overcast
Visibility: 10 miles , 16 km
Cloud details: Few Clouds 4500 ft
Few Clouds 8000 ft
Overcast 14000 ft
2020/08/06 11:52 KDCA 061152Z 03006KT 10SM FEW045 FEW080 OVC140 23/21 A3007 RMK AO2 SLP182 60016 70016 T02330211 10261 20222 53004
KFDK - Frederick, Maryland, USA
Distance from station: NNE 33mi, 53km
Updated: Thu, 06-Aug-2020 7:47am EDT
Clear
Clear
 Wind from NE
Wind: NE 9 mph , 15 km/h
Temperature: 70°F , 21°C
Dew Point: 66°F , 19°C
Humidity: 88%
Barometer: 30.08 inHg , 1018.6 hPa
Clouds: Clear
Visibility: 10 miles , 16 km
2020/08/06 11:47 KFDK 061147Z 04008KT 10SM SKC 21/19 A3008
 
KOKV - Winchester Rgnl, Virginia, USA
Distance from station: WNW 33mi, 54km
Updated: Thu, 06-Aug-2020 8:35am EDT
Mostly cloudy
Mostly cloudy
 Wind from calm
Wind: Calm
Temperature: 68°F , 20°C
Dew Point: 63°F , 17°C
Humidity: 83%
Barometer: 30.10 inHg , 1019.3 hPa
Clouds: Mostly cloudy
Visibility: 10 miles , 16 km
Cloud details: Mostly cloudy 11000 ft
2020/08/06 12:35 KOKV 061235Z AUTO 00000KT 10SM BKN110 20/17 A3010 RMK AO2
KCJR - Culpeper, Virginia, USA
Distance from station: SSW 34mi, 54km
Updated: Thu, 06-Aug-2020 8:15am EDT
Overcast
Overcast
 Wind from calm
Wind: Calm
Temperature: 72°F , 22°C
Dew Point: 70°F , 21°C
Humidity: 94%
Barometer: 30.10 inHg , 1019.3 hPa
Clouds: Overcast
Visibility: 10 miles , 16 km
Cloud details: Overcast 600 ft
2020/08/06 12:15 KCJR 061215Z AUTO 00000KT 10SM OVC006 22/21 A3010 RMK AO2 T02180210
 
KCGS - College Park, Maryland, USA
Distance from station: E 35mi, 56km
Updated: Thu, 06-Aug-2020 8:15am EDT
Clear
Clear
 Wind from calm
Wind: Calm
Temperature: 72°F , 22°C
Dew Point: 70°F , 21°C
Humidity: 94%
Barometer: 30.07 inHg , 1018.3 hPa
Clouds: Clear
Visibility: 10 miles , 16 km
2020/08/06 12:15 KCGS 061215Z AUTO 00000KT 10SM CLR 22/21 A3007 RMK AO1 T02190207
KNYG - Quantico Mcaf, Virginia, USA
Distance from station: SSE 35mi, 57km
Updated: Thu, 06-Aug-2020 7:56am EDT
Mist, Mostly cloudy
Mist, Mostly cloudy
 Wind from ENE
Wind: ENE 9 mph , 15 km/h
Temperature: 75°F , 24°C
Dew Point: 72°F , 22°C
Humidity: 89%
Barometer: 30.07 inHg , 1018.3 hPa
Summary: Mist
Clouds: Mostly cloudy
Visibility: 6 miles , 10 km
Cloud details: Few Clouds 900 ft
Mostly cloudy 12000 ft
2020/08/06 11:56 KNYG 061156Z 07008KT 6SM BR FEW009 BKN120 24/22 A3007 RMK AO2 SLP184 60055 70055 T02390217 10239 20222 53003
 
KFRR - Fort Royal, Virginia, USA
Distance from station: W 37mi, 59km
Updated: Thu, 06-Aug-2020 8:35am EDT
Overcast
Overcast
 Wind from calm
Wind: Calm
Barometer: 30.11 inHg , 1019.6 hPa
Clouds: Overcast
Visibility: 10 miles , 16 km
Cloud details: Mostly cloudy 500 ft
Overcast 9000 ft
2020/08/06 12:35 KFRR 061235Z AUTO 00000KT 10SM BKN005 OVC090 A3011 RMK AO1
KMRB - Martinsburg, West Virginia, USA
Distance from station: NW 38mi, 61km
Updated: Thu, 06-Aug-2020 7:53am EDT
Clear
Clear
 Wind from N
Wind: N 7 mph , 11 km/h
Temperature: 70°F , 21°C
Dew Point: 61°F , 16°C
Humidity: 73%
Barometer: 30.08 inHg , 1018.6 hPa
Clouds: Clear
Visibility: 10 miles , 16 km
2020/08/06 11:53 KMRB 061153Z 36006KT 10SM CLR 21/16 A3008 RMK AO2 SLP182 60000 T02060161 10233 20189 51007
 
KADW - Andrews Afb, Maryland, USA
Distance from station: ESE 39mi, 63km
Updated: Thu, 06-Aug-2020 7:56am EDT
Partly cloudy
Partly cloudy
 Wind from NE
Wind: NE 6 mph , 9 km/h
Temperature: 72°F , 22°C
Dew Point: 72°F , 22°C
Humidity: 100%
Barometer: 30.06 inHg , 1017.9 hPa
Clouds: Partly cloudy
Visibility: 10 miles , 16 km
Cloud details: Partly cloudy 400 ft
2020/08/06 11:56 KADW 061156Z AUTO 04005KT 10SM SCT004 22/22 A3006 RMK AO2 SLP184 60041 70041 T02200216 10238 20210 50003 $
KRMN - Stafford Regnl, Virginia, USA
Distance from station: S 39mi, 63km
Updated: Thu, 06-Aug-2020 8:35am EDT
Partly cloudy
Partly cloudy
 Wind from calm
Wind: Calm
Temperature: 75°F , 24°C
Dew Point: 75°F , 24°C
Humidity: 100%
Barometer: 30.12 inHg , 1020 hPa
Clouds: Partly cloudy
Visibility: 10 miles , 16 km
Cloud details: Partly cloudy 1000 ft
2020/08/06 12:35 KRMN 061235Z AUTO 00000KT 10SM SCT010 24/24 A3012 RMK AO2 LTG DSNT S T02360236
 
KFME - Fort Meade, Maryland, USA
Distance from station: ENE 44mi, 70km
Updated: Thu, 06-Aug-2020 8:35am EDT
Clear
Clear
 Wind from calm
Wind: Calm
Temperature: 72°F , 22°C
Dew Point: 70°F , 21°C
Humidity: 94%
Barometer: 30.11 inHg , 1019.6 hPa
Clouds: Clear
Visibility: 5 miles , 8 km
2020/08/06 12:35 KFME 061235Z AUTO 00000KT 5SM CLR 22/21 A3011 RMK AO1
KRSP - Nsf Thurmont, Maryland, USA
Distance from station: N 48mi, 77km
Updated: Thu, 06-Aug-2020 8:17am EDT
Partly cloudy
Partly cloudy
 Wind from varies
Wind: varies 6 mph , 9 km/h
Temperature: 64°F , 18°C
Dew Point: 55°F , 13°C
Humidity: 73%
Barometer: 30.15 inHg , 1021 hPa
Clouds: Partly cloudy
Visibility: 10 miles , 16 km
Cloud details: Partly cloudy 2000 ft
2020/08/06 12:17 KRSP 061217Z AUTO VRB05KT 10SM SCT020 18/13 A3015 RMK AO2 $
 
KEZF - Fredericksb/Shan, Virginia, USA
Distance from station: S 48mi, 78km
Updated: Thu, 06-Aug-2020 8:35am EDT
Overcast
Overcast
 Wind from calm
Wind: Calm
Temperature: 73°F , 23°C
Dew Point: 73°F , 23°C
Humidity: 100%
Barometer: 30.07 inHg , 1018.3 hPa
Clouds: Overcast
Visibility: 10 miles , 16 km
Cloud details: Mostly cloudy 700 ft
Overcast 12000 ft
2020/08/06 12:35 KEZF 061235Z AUTO 00000KT 10SM BKN007 OVC120 23/23 A3007 RMK AO2 T02330233
KBWI - Balto/Wash Intl, Maryland, USA
Distance from station: ENE 49mi, 80km
Updated: Thu, 06-Aug-2020 8:28am EDT
Mist, Mostly cloudy
Mist, Mostly cloudy
 Wind from N
Wind: N 5 mph , 7 km/h
Temperature: 73°F , 23°C
Dew Point: 70°F , 21°C
Humidity: 89%
Barometer: 30.07 inHg , 1018.3 hPa
Summary: Mist
Clouds: Mostly cloudy
Visibility: 6 miles , 10 km
Cloud details: Few Clouds 900 ft
Partly cloudy 4200 ft
Mostly cloudy 9000 ft
Mostly cloudy 25000 ft
2020/08/06 12:28 KBWI 061228Z 36004KT 6SM BR FEW009 SCT042 BKN090 BKN250 23/21 A3007 RMK AO2 T02330211